createdAt,value
2019-05-23T00:03:36.350Z,1.95
2019-05-23T00:07:43.247Z,1.90
2019-05-23T00:11:48.379Z,1.85
2019-05-23T00:15:54.909Z,2.52
2019-05-23T00:19:59.432Z,1.85
2019-05-23T00:24:04.213Z,1.60
2019-05-23T00:28:09.017Z,1.90
2019-05-23T00:32:15.304Z,2.00
2019-05-23T00:36:19.698Z,1.62
2019-05-23T00:40:23.190Z,2.33
2019-05-23T00:44:27.883Z,1.90
2019-05-23T00:48:32.895Z,2.27
2019-05-23T00:52:37.414Z,1.72
2019-05-23T00:56:41.909Z,2.05
2019-05-23T01:00:45.662Z,2.30
2019-05-23T01:04:51.112Z,2.33
2019-05-23T01:08:56.284Z,2.15
2019-05-23T01:13:00.309Z,2.75
2019-05-23T01:17:03.908Z,2.50
2019-05-23T01:21:21.236Z,2.90
2019-05-23T01:25:26.745Z,4.15
2019-05-23T01:29:37.761Z,2.80
2019-05-23T01:33:38.433Z,3.02
2019-05-23T01:37:42.975Z,2.70
2019-05-23T01:41:46.761Z,2.67
2019-05-23T01:45:50.750Z,2.92
2019-05-23T01:49:55.055Z,2.65
2019-05-23T01:53:58.543Z,3.58
2019-05-23T01:58:02.487Z,2.62
2019-05-23T02:02:06.976Z,3.10
2019-05-23T02:06:10.936Z,3.05
2019-05-23T02:10:16.386Z,2.52
2019-05-23T02:14:23.021Z,2.83
2019-05-23T02:18:28.554Z,2.75
2019-05-23T02:22:32.571Z,2.62
2019-05-23T02:26:37.015Z,3.52
2019-05-23T02:30:40.852Z,3.17
2019-05-23T02:34:45.142Z,2.08
2019-05-23T02:38:53.843Z,2.98
2019-05-23T02:43:07.756Z,2.98
2019-05-23T02:47:23.431Z,2.55
2019-05-23T02:51:33.777Z,3.20
2019-05-23T02:55:41.126Z,3.30
2019-05-23T02:59:49.278Z,3.10
2019-05-23T03:03:54.623Z,3.15
2019-05-23T03:08:01.189Z,2.77
2019-05-23T03:12:06.904Z,2.83
2019-05-23T03:16:17.873Z,4.20
2019-05-23T03:20:22.252Z,3.13
2019-05-23T03:24:26.527Z,2.92
2019-05-23T03:28:34.079Z,3.30
2019-05-23T03:32:39.992Z,2.72
2019-05-23T03:36:45.718Z,3.22
2019-05-23T03:40:50.210Z,2.33
2019-05-23T03:44:54.558Z,2.45
2019-05-23T03:48:59.915Z,2.72
2019-05-23T03:53:05.295Z,2.33
2019-05-23T03:57:10.758Z,2.40
2019-05-23T04:01:16.135Z,2.58
2019-05-23T04:05:20.582Z,2.33
2019-05-23T04:09:24.318Z,2.50
2019-05-23T04:13:28.410Z,2.55
2019-05-23T04:17:32.815Z,2.90
2019-05-23T04:21:36.286Z,2.95
2019-05-23T04:25:40.148Z,2.33
2019-05-23T04:29:43.740Z,2.08
2019-05-23T04:33:47.986Z,4.17
2019-05-23T04:37:51.607Z,4.78
2019-05-23T04:41:55.368Z,5.08
2019-05-23T04:45:59.214Z,4.55
2019-05-23T04:50:03.268Z,4.85
2019-05-23T04:54:08.289Z,4.25
2019-05-23T04:58:11.858Z,4.45
2019-05-23T05:02:25.528Z,4.70
2019-05-23T05:06:21.149Z,4.83
2019-05-23T05:10:27.009Z,4.22
2019-05-23T05:14:31.363Z,4.95
2019-05-23T05:18:35.112Z,6.33
2019-05-23T05:22:38.960Z,5.25
2019-05-23T05:26:42.791Z,4.90
2019-05-23T05:30:46.349Z,6.83
2019-05-23T05:34:49.909Z,5.55
2019-05-23T05:38:53.657Z,4.58
2019-05-23T05:42:58.301Z,6.08
2019-05-23T05:47:01.840Z,6.03
2019-05-23T05:51:05.939Z,5.65
2019-05-23T05:55:10.769Z,6.28
2019-05-23T05:59:14.749Z,5.05
2019-05-23T06:03:19.171Z,5.75
2019-05-23T06:07:26.794Z,4.55
2019-05-23T06:11:30.576Z,4.58
2019-05-23T06:15:35.456Z,4.28
2019-05-23T06:19:38.993Z,4.47
2019-05-23T06:23:43.128Z,4.75
2019-05-23T06:27:48.417Z,5.15
2019-05-23T06:31:53.369Z,4.42
2019-05-23T06:35:57.696Z,4.15
2019-05-23T06:40:01.377Z,4.58
2019-05-23T06:44:05.931Z,3.60
2019-05-23T06:48:10.764Z,3.75
2019-05-23T06:52:14.399Z,4.87
2019-05-23T06:56:18.450Z,3.37
2019-05-23T07:00:23.571Z,2.75
2019-05-23T07:04:27.714Z,2.55
2019-05-23T07:08:31.529Z,2.55
2019-05-23T07:12:35.658Z,2.20
2019-05-23T07:16:39.483Z,2.30
2019-05-23T07:20:43.042Z,1.90
2019-05-23T07:24:57.556Z,2.15
2019-05-23T07:28:53.090Z,2.45
2019-05-23T07:32:57.186Z,2.45
2019-05-23T07:37:01.890Z,1.75
2019-05-23T07:41:08.416Z,2.00
2019-05-23T07:45:20.228Z,1.72
2019-05-23T07:49:23.966Z,2.27
2019-05-23T07:53:47.680Z,2.22
2019-05-23T07:57:51.460Z,2.00
2019-05-23T08:01:59.651Z,1.62
2019-05-23T08:06:03.541Z,2.17
2019-05-23T08:10:10.647Z,1.50
2019-05-23T08:14:14.115Z,1.60
2019-05-23T08:18:17.671Z,1.22
2019-05-23T08:22:21.153Z,1.72
2019-05-23T08:26:24.654Z,1.22
2019-05-23T08:30:28.198Z,1.32
2019-05-23T08:34:41.510Z,1.02
2019-05-23T08:38:37.469Z,1.30
2019-05-23T08:42:41.591Z,1.10
2019-05-23T08:46:45.147Z,1.30
2019-05-23T08:50:51.398Z,1.15
2019-05-23T08:54:56.876Z,1.20
2019-05-23T08:59:00.891Z,1.10
2019-05-23T09:03:05.512Z,1.10
2019-05-23T09:07:10.383Z,1.10
2019-05-23T09:11:15.504Z,1.00
2019-05-23T09:15:19.155Z,1.03
2019-05-23T09:19:22.896Z,0.75
2019-05-23T09:23:28.147Z,1.02
2019-05-23T09:27:34.599Z,0.70
2019-05-23T09:31:38.420Z,0.72
2019-05-23T09:35:42.886Z,0.80
2019-05-23T09:39:48.137Z,1.10
2019-05-23T09:43:51.708Z,0.80
2019-05-23T09:47:55.263Z,0.85
2019-05-23T09:52:01.347Z,0.80
2019-05-23T09:56:04.966Z,0.90
2019-05-23T10:00:11.300Z,0.65
2019-05-23T10:04:14.778Z,0.70
2019-05-23T10:08:18.268Z,0.55
2019-05-23T10:12:22.647Z,1.42
2019-05-23T10:16:26.398Z,0.45
2019-05-23T10:20:34.211Z,0.90
2019-05-23T10:24:37.701Z,0.67
2019-05-23T10:28:41.359Z,0.42
2019-05-23T10:32:45.154Z,0.62
2019-05-23T10:36:48.639Z,0.68
2019-05-23T10:40:52.481Z,0.60
2019-05-23T10:44:56.272Z,0.42
2019-05-23T10:48:59.746Z,0.60
2019-05-23T10:53:03.748Z,0.40
2019-05-23T10:57:07.517Z,0.82
2019-05-23T11:01:13.166Z,0.50
2019-05-23T11:05:18.576Z,0.80
2019-05-23T11:09:36.643Z,0.60
2019-05-23T11:13:27.924Z,0.68
2019-05-23T11:17:31.412Z,1.42
2019-05-23T11:21:34.966Z,0.80
2019-05-23T11:25:39.925Z,0.57
2019-05-23T11:29:43.628Z,0.68
2019-05-23T11:33:47.462Z,0.57
2019-05-23T11:37:51.017Z,0.90
2019-05-23T11:41:54.563Z,0.88
2019-05-23T11:46:01.602Z,0.70
2019-05-23T11:50:06.714Z,1.12
2019-05-23T11:54:10.489Z,0.75
2019-05-23T11:58:14.228Z,0.70
2019-05-23T12:02:19.635Z,1.25
2019-05-23T12:06:26.376Z,0.40
2019-05-23T12:10:32.778Z,1.00
2019-05-23T12:14:37.078Z,0.70
2019-05-23T12:18:40.589Z,1.00
2019-05-23T12:22:44.774Z,0.70
2019-05-23T12:26:48.758Z,0.70
2019-05-23T12:30:52.726Z,0.60
2019-05-23T12:35:09.264Z,0.70
2019-05-23T12:39:01.964Z,0.62
2019-05-23T12:43:05.803Z,0.80
2019-05-23T12:47:10.983Z,0.75
2019-05-23T12:51:16.377Z,0.62
2019-05-23T12:55:19.871Z,1.00
2019-05-23T12:59:24.278Z,0.68
2019-05-23T13:03:29.419Z,0.60
2019-05-23T13:07:36.599Z,0.75
2019-05-23T13:11:39.085Z,0.50
2019-05-23T13:15:42.938Z,0.50
2019-05-23T13:19:46.691Z,0.60
2019-05-23T13:23:50.277Z,0.80
2019-05-23T13:27:58.052Z,1.02
2019-05-23T13:31:59.384Z,1.00
2019-05-23T13:36:05.112Z,0.53
2019-05-23T13:40:09.643Z,0.80
2019-05-23T13:44:32.148Z,0.57
2019-05-23T13:48:18.520Z,0.60
2019-05-23T13:52:22.031Z,0.68
2019-05-23T13:56:25.585Z,1.15
2019-05-23T14:00:30.780Z,1.10
2019-05-23T14:04:34.297Z,0.60
2019-05-23T14:08:38.177Z,0.55
2019-05-23T14:12:41.920Z,0.68
2019-05-23T14:17:03.861Z,0.50
2019-05-23T14:21:07.352Z,0.75
2019-05-23T14:25:11.007Z,0.68
2019-05-23T14:29:14.762Z,0.75
2019-05-23T14:33:27.120Z,0.70
2019-05-23T14:41:45.986Z,1.00
2019-05-23T14:45:54.437Z,0.33
2019-05-23T14:50:15.079Z,0.50
2019-05-23T14:54:20.362Z,0.60
2019-05-23T14:58:24.208Z,0.88
2019-05-23T15:02:28.040Z,0.60
2019-05-23T15:06:31.700Z,0.90
2019-05-23T15:10:35.196Z,0.60
2019-05-23T15:14:38.704Z,0.50
2019-05-23T15:18:45.245Z,1.12
2019-05-23T15:22:48.723Z,0.50
2019-05-23T15:26:52.345Z,0.55
2019-05-23T15:30:58.600Z,1.22
2019-05-23T15:35:03.067Z,0.60
2019-05-23T15:39:10.498Z,0.75
2019-05-23T15:43:14.308Z,0.80
2019-05-23T15:47:19.785Z,0.50
2019-05-23T15:51:24.996Z,0.95
2019-05-23T15:55:33.307Z,0.68
2019-05-23T15:59:44.423Z,0.62
2019-05-23T16:03:52.826Z,0.57
2019-05-23T16:07:56.478Z,0.68
2019-05-23T16:12:00.122Z,0.50
2019-05-23T16:16:04.453Z,0.70
2019-05-23T16:20:08.378Z,0.60
2019-05-23T16:24:12.538Z,0.62
2019-05-23T16:28:16.399Z,0.88
2019-05-23T16:32:19.887Z,0.78
2019-05-23T16:36:23.378Z,0.70
2019-05-23T16:40:26.879Z,0.60
2019-05-23T16:44:30.378Z,0.60
2019-05-23T16:48:34.020Z,0.80
2019-05-23T16:52:38.349Z,0.70
2019-05-23T16:56:59.499Z,0.72
2019-05-23T17:01:04.829Z,0.78
2019-05-23T17:05:28.991Z,0.50
2019-05-23T17:09:34.303Z,0.93
2019-05-23T17:13:39.408Z,0.55
2019-05-23T17:18:02.474Z,0.70
2019-05-23T17:22:13.304Z,0.65
2019-05-23T17:26:34.809Z,0.50
2019-05-23T17:30:42.850Z,1.15
2019-05-23T17:34:46.760Z,0.70
2019-05-23T17:38:50.242Z,0.85
2019-05-23T17:42:53.732Z,0.80
2019-05-23T17:46:57.221Z,0.78
2019-05-23T17:51:01.139Z,0.72
2019-05-23T17:55:06.604Z,0.47
2019-05-23T17:59:10.403Z,0.93
2019-05-23T18:03:15.307Z,0.60
2019-05-23T18:07:18.869Z,0.80
2019-05-23T18:11:22.464Z,0.62
2019-05-23T18:15:26.783Z,0.80
2019-05-23T18:19:30.436Z,0.70
2019-05-23T18:23:34.460Z,0.60
2019-05-23T18:27:38.291Z,0.60
2019-05-23T18:31:42.872Z,0.55
2019-05-23T18:35:46.990Z,0.50
2019-05-23T18:39:50.815Z,0.80
2019-05-23T18:43:55.071Z,0.60
2019-05-23T18:47:58.805Z,0.70
2019-05-23T18:52:02.441Z,0.57
2019-05-23T18:56:07.404Z,0.80
2019-05-23T19:00:11.847Z,0.50
2019-05-23T19:04:15.523Z,0.62
2019-05-23T19:08:19.750Z,0.60
2019-05-23T19:12:23.521Z,0.80
2019-05-23T19:16:29.541Z,1.00
2019-05-23T19:20:33.505Z,0.95
2019-05-23T19:24:38.418Z,1.52
2019-05-23T19:28:43.565Z,0.65
2019-05-23T19:32:47.437Z,0.80
2019-05-23T19:36:51.090Z,0.93
2019-05-23T19:40:55.714Z,0.90
2019-05-23T19:44:59.358Z,0.93
2019-05-23T19:49:03.154Z,0.88
2019-05-23T19:53:06.998Z,0.80
2019-05-23T19:57:10.470Z,0.95
2019-05-23T20:01:14.709Z,1.00
2019-05-23T20:05:23.521Z,0.88
2019-05-23T20:09:27.878Z,1.20
2019-05-23T20:13:32.126Z,0.90
2019-05-23T20:17:35.716Z,1.00
2019-05-23T20:21:39.633Z,1.22
2019-05-23T20:25:43.548Z,0.80
2019-05-23T20:29:47.055Z,1.00
2019-05-23T20:33:51.542Z,1.00
2019-05-23T20:37:55.150Z,1.10
2019-05-23T20:42:10.881Z,0.90
2019-05-23T20:46:05.442Z,1.27
2019-05-23T20:50:09.330Z,1.20
2019-05-23T20:54:13.223Z,1.20
2019-05-23T20:58:16.861Z,1.40
2019-05-23T21:02:20.976Z,1.22
2019-05-23T21:06:24.867Z,1.60
2019-05-23T21:10:40.781Z,1.10
2019-05-23T21:14:44.563Z,0.98
2019-05-23T21:18:49.956Z,1.35
2019-05-23T21:22:53.855Z,1.30
2019-05-23T21:26:57.542Z,1.10
2019-05-23T21:31:01.297Z,1.42
2019-05-23T21:35:07.347Z,1.25
2019-05-23T21:39:12.563Z,1.50
2019-05-23T21:43:16.042Z,1.07
2019-05-23T21:47:19.904Z,1.22
2019-05-23T21:51:23.471Z,1.20
2019-05-23T21:55:43.938Z,1.20
2019-05-23T21:59:47.857Z,1.10
2019-05-23T22:03:53.450Z,1.10
2019-05-23T22:07:57.179Z,1.30
2019-05-23T22:12:01.013Z,1.25
2019-05-23T22:16:04.675Z,1.47
2019-05-23T22:20:08.696Z,1.37
2019-05-23T22:24:12.813Z,1.62
2019-05-23T22:28:16.806Z,1.20
2019-05-23T22:32:21.173Z,2.05
2019-05-23T22:36:25.205Z,1.20
2019-05-23T22:40:28.675Z,1.80
2019-05-23T22:44:32.527Z,1.10
2019-05-23T22:48:36.450Z,1.47
2019-05-23T22:52:39.957Z,1.02
2019-05-23T22:56:43.447Z,1.57
2019-05-23T23:00:48.929Z,1.30
2019-05-23T23:04:52.524Z,1.30
2019-05-23T23:08:56.083Z,1.30
2019-05-23T23:12:59.577Z,1.62
2019-05-23T23:17:03.183Z,1.20
2019-05-23T23:21:06.667Z,1.33
2019-05-23T23:25:11.031Z,1.40
2019-05-23T23:29:14.836Z,1.42
2019-05-23T23:33:18.971Z,1.40
2019-05-23T23:37:22.798Z,1.30
2019-05-23T23:41:26.274Z,1.25
2019-05-23T23:45:47.407Z,1.42
2019-05-23T23:50:08.721Z,1.40
2019-05-23T23:54:30.186Z,1.40
2019-05-23T23:58:32.957Z,1.50
